createdAt,value
2023-03-23T00:01:02.296Z,41.51
2023-03-23T00:03:33.196Z,42.89
2023-03-23T00:06:05.918Z,41.29
2023-03-23T00:08:47.397Z,42.27
2023-03-23T00:11:22.717Z,40.09
2023-03-23T00:13:55.950Z,41.49
2023-03-23T00:16:31.518Z,39.55
2023-03-23T00:19:03.697Z,40.06
2023-03-23T00:21:38.194Z,39.16
2023-03-23T00:24:12.080Z,38.81
2023-03-23T00:26:48.252Z,40.99
2023-03-23T00:29:22.440Z,38.70
2023-03-23T00:31:52.735Z,38.82
2023-03-23T00:34:26.017Z,37.27
2023-03-23T00:36:58.162Z,37.74
2023-03-23T00:39:30.160Z,36.57
2023-03-23T00:42:01.886Z,36.05
2023-03-23T00:44:36.490Z,37.76
2023-03-23T00:47:06.376Z,35.68
2023-03-23T00:49:36.581Z,34.34
2023-03-23T00:52:09.702Z,34.67
2023-03-23T00:54:43.292Z,35.64
2023-03-23T00:57:12.951Z,34.25
2023-03-23T00:59:42.481Z,34.76
2023-03-23T01:02:12.101Z,34.31
2023-03-23T01:04:46.945Z,34.14
2023-03-23T01:07:19.310Z,32.64
2023-03-23T01:09:49.449Z,33.49
2023-03-23T01:12:18.940Z,33.34
2023-03-23T01:15:02.879Z,32.32
2023-03-23T01:17:32.661Z,32.08
2023-03-23T01:20:02.443Z,32.52
2023-03-23T01:22:37.814Z,31.47
2023-03-23T01:25:13.090Z,33.06
2023-03-23T01:27:43.065Z,32.29
2023-03-23T01:30:15.133Z,31.06
2023-03-23T01:32:44.761Z,32.10
2023-03-23T01:35:15.813Z,30.22
2023-03-23T01:37:48.747Z,30.89
2023-03-23T01:40:18.776Z,31.95
2023-03-23T01:42:51.317Z,31.11
2023-03-23T01:45:35.832Z,30.60
2023-03-23T01:48:13.654Z,29.86
2023-03-23T01:50:58.063Z,29.43
2023-03-23T01:53:36.023Z,28.34
2023-03-23T01:56:13.713Z,28.97
2023-03-23T01:58:43.687Z,30.34
2023-03-23T02:01:16.561Z,30.29
2023-03-23T02:03:52.717Z,28.31
2023-03-23T02:06:22.641Z,30.36
2023-03-23T02:08:54.962Z,32.12
2023-03-23T02:11:25.150Z,31.09
2023-03-23T02:13:55.603Z,31.17
2023-03-23T02:16:36.550Z,31.21
2023-03-23T02:19:30.866Z,31.90
2023-03-23T02:22:36.660Z,31.84
2023-03-23T02:25:38.437Z,31.42
2023-03-23T02:28:37.793Z,32.75
2023-03-23T02:31:29.566Z,32.99
2023-03-23T02:34:16.120Z,30.86
2023-03-23T02:36:54.309Z,32.42
2023-03-23T02:39:31.028Z,32.62
2023-03-23T02:42:14.339Z,32.62
2023-03-23T02:44:51.079Z,33.84
2023-03-23T02:47:26.502Z,33.59
2023-03-23T02:50:00.250Z,33.56
2023-03-23T02:52:33.738Z,35.47
2023-03-23T02:55:08.258Z,35.24
2023-03-23T02:57:40.216Z,35.25
2023-03-23T03:00:15.646Z,36.49
2023-03-23T03:02:48.652Z,35.58
2023-03-23T03:05:36.264Z,36.64
2023-03-23T03:08:21.003Z,34.76
2023-03-23T03:10:57.551Z,33.66
2023-03-23T03:13:39.728Z,34.74
2023-03-23T03:16:21.495Z,32.65
2023-03-23T03:18:58.761Z,34.14
2023-03-23T03:21:38.368Z,33.51
2023-03-23T03:24:25.095Z,33.93
2023-03-23T03:27:00.442Z,33.51
2023-03-23T03:29:35.907Z,31.61
2023-03-23T03:32:10.937Z,30.52
2023-03-23T03:34:41.312Z,30.56
2023-03-23T03:37:15.970Z,27.99
2023-03-23T03:39:45.642Z,27.24
2023-03-23T03:42:15.323Z,28.31
2023-03-23T03:45:15.098Z,26.66
2023-03-23T03:47:44.742Z,26.71
2023-03-23T03:50:15.454Z,26.29
2023-03-23T03:52:47.497Z,22.65
2023-03-23T03:55:18.514Z,24.74
2023-03-23T03:57:48.387Z,23.81
2023-03-23T04:00:19.658Z,22.51
2023-03-23T04:02:55.282Z,22.30
2023-03-23T04:05:43.349Z,21.82
2023-03-23T04:08:16.056Z,20.99
2023-03-23T04:10:45.752Z,21.38
2023-03-23T04:13:15.465Z,20.80
2023-03-23T04:16:07.219Z,21.91
2023-03-23T04:18:37.981Z,21.89
2023-03-23T04:21:09.841Z,22.33
2023-03-23T04:23:42.968Z,21.44
2023-03-23T04:26:14.231Z,20.73
2023-03-23T04:28:44.343Z,20.73
2023-03-23T04:31:14.050Z,20.55
2023-03-23T04:33:59.959Z,19.77
2023-03-23T04:36:57.041Z,18.90
2023-03-23T04:39:23.187Z,17.10
2023-03-23T04:41:52.794Z,18.06
2023-03-23T04:44:22.618Z,16.21
2023-03-23T04:46:55.372Z,17.29
2023-03-23T04:49:24.872Z,17.92
2023-03-23T04:51:54.641Z,16.75
2023-03-23T04:54:30.412Z,15.99
2023-03-23T04:57:00.039Z,16.46
2023-03-23T04:59:31.906Z,15.29
2023-03-23T05:02:14.642Z,14.53
2023-03-23T05:04:52.268Z,14.72
2023-03-23T05:07:21.671Z,15.49
2023-03-23T05:09:54.041Z,14.54
2023-03-23T05:12:23.474Z,15.21
2023-03-23T05:14:56.595Z,14.28
2023-03-23T05:17:26.246Z,14.23
2023-03-23T05:19:57.860Z,14.89
2023-03-23T05:22:29.754Z,13.65
2023-03-23T05:25:04.441Z,13.58
2023-03-23T05:27:34.544Z,14.82
2023-03-23T05:30:05.142Z,14.97
2023-03-23T05:32:34.553Z,14.30
2023-03-23T05:35:04.832Z,13.40
2023-03-23T05:37:34.322Z,14.73
2023-03-23T05:40:08.169Z,14.26
2023-03-23T05:42:38.538Z,13.36
2023-03-23T05:45:19.295Z,14.84
2023-03-23T05:47:50.372Z,13.56
2023-03-23T05:50:20.085Z,13.54
2023-03-23T05:52:49.887Z,13.85
2023-03-23T05:55:46.353Z,15.37
2023-03-23T05:58:16.158Z,14.79
2023-03-23T06:00:46.505Z,13.29
2023-03-23T06:03:16.806Z,13.91
2023-03-23T06:05:51.541Z,13.67
2023-03-23T06:08:20.970Z,15.33
2023-03-23T06:10:53.192Z,13.82
2023-03-23T06:13:22.660Z,14.49
2023-03-23T06:15:59.216Z,14.85
2023-03-23T06:18:30.164Z,14.70
2023-03-23T06:20:59.854Z,14.46
2023-03-23T06:23:30.300Z,14.95
2023-03-23T06:26:06.771Z,15.52
2023-03-23T06:28:36.931Z,14.84
2023-03-23T06:31:09.416Z,14.57
2023-03-23T06:33:42.110Z,15.49
2023-03-23T06:36:13.372Z,15.75
2023-03-23T06:38:42.813Z,15.21
2023-03-23T06:41:15.126Z,15.71
2023-03-23T06:43:45.303Z,17.81
2023-03-23T06:46:14.780Z,17.43
2023-03-23T06:48:44.689Z,18.66
2023-03-23T06:51:14.286Z,18.30
2023-03-23T06:53:44.001Z,18.61
2023-03-23T06:56:16.458Z,17.63
2023-03-23T06:58:48.998Z,17.01
2023-03-23T07:01:18.657Z,16.71
2023-03-23T07:03:48.276Z,15.20
2023-03-23T07:06:17.999Z,15.69
2023-03-23T07:08:47.770Z,15.81
2023-03-23T07:11:19.973Z,15.77
2023-03-23T07:13:51.084Z,17.51
2023-03-23T07:16:20.733Z,17.23
2023-03-23T07:18:50.333Z,16.21
2023-03-23T07:21:20.139Z,16.88
2023-03-23T07:23:49.626Z,16.95
2023-03-23T07:26:22.873Z,16.73
2023-03-23T07:28:55.723Z,17.00
2023-03-23T07:31:29.884Z,15.66
2023-03-23T07:34:02.638Z,16.79
2023-03-23T07:36:34.465Z,16.23
2023-03-23T07:39:04.158Z,16.16
2023-03-23T07:41:36.891Z,15.78
2023-03-23T07:44:23.248Z,15.41
2023-03-23T07:46:54.648Z,15.69
2023-03-23T07:49:24.011Z,15.66
2023-03-23T07:51:53.505Z,14.66
2023-03-23T07:54:27.159Z,15.34
2023-03-23T07:57:00.914Z,14.83
2023-03-23T07:59:30.578Z,16.46
2023-03-23T08:02:00.186Z,16.90
2023-03-23T08:04:38.589Z,15.77
2023-03-23T08:07:13.545Z,17.18
